createdAt,value
2018-04-24T00:01:57.575Z,54.90
2018-04-24T00:04:25.957Z,54.80
2018-04-24T00:06:53.405Z,54.80
2018-04-24T00:09:20.869Z,54.80
2018-04-24T00:11:48.319Z,54.80
2018-04-24T00:14:15.779Z,54.80
2018-04-24T00:16:43.239Z,54.80
2018-04-24T00:19:10.800Z,54.80
2018-04-24T00:21:38.255Z,54.80
2018-04-24T00:24:05.720Z,54.70
2018-04-24T00:26:33.179Z,54.80
2018-04-24T00:29:00.628Z,54.80
2018-04-24T00:31:28.080Z,54.80
2018-04-24T00:33:55.555Z,54.80
2018-04-24T00:36:23.002Z,54.80
2018-04-24T00:38:50.475Z,54.80
2018-04-24T00:41:18.697Z,55.30
2018-04-24T00:43:46.151Z,54.80
2018-04-24T00:46:13.607Z,54.80
2018-04-24T00:48:41.072Z,54.80
2018-04-24T00:51:08.526Z,54.70
2018-04-24T00:53:38.368Z,54.80
2018-04-24T00:56:06.583Z,54.80
2018-04-24T00:58:34.056Z,54.80
2018-04-24T01:01:01.504Z,54.80
2018-04-24T01:03:28.961Z,54.80
2018-04-24T01:05:56.459Z,54.80
2018-04-24T01:08:23.910Z,54.80
2018-04-24T01:10:51.372Z,54.80
2018-04-24T01:13:18.835Z,54.70
2018-04-24T01:15:46.300Z,54.80
2018-04-24T01:18:14.513Z,54.70
2018-04-24T01:20:41.985Z,54.80
2018-04-24T01:23:09.439Z,54.70
2018-04-24T01:25:36.900Z,54.80
2018-04-24T01:28:04.368Z,54.80
2018-04-24T01:30:31.842Z,54.80
2018-04-24T01:32:59.289Z,54.70
2018-04-24T01:35:26.793Z,54.80
2018-04-24T01:37:54.296Z,54.90
2018-04-24T01:40:21.757Z,54.90
2018-04-24T01:42:49.208Z,54.90
2018-04-24T01:45:16.668Z,55.00
2018-04-24T01:47:44.216Z,55.00
2018-04-24T01:50:11.737Z,55.00
2018-04-24T01:52:39.184Z,55.00
2018-04-24T01:55:06.641Z,54.90
2018-04-24T01:57:34.088Z,55.10
2018-04-24T02:00:01.556Z,55.00
2018-04-24T02:02:29.003Z,55.00
2018-04-24T02:04:56.467Z,55.00
2018-04-24T02:07:23.956Z,55.00
2018-04-24T02:09:51.416Z,55.10
2018-04-24T02:12:18.869Z,55.00
2018-04-24T02:14:46.433Z,55.00
2018-04-24T02:17:13.884Z,55.00
2018-04-24T02:19:41.341Z,55.10
2018-04-24T02:22:08.901Z,55.00
2018-04-24T02:24:36.356Z,55.00
2018-04-24T02:27:03.817Z,55.00
2018-04-24T02:29:31.262Z,55.00
2018-04-24T02:31:58.720Z,55.00
2018-04-24T02:34:26.180Z,55.00
2018-04-24T02:36:53.751Z,55.00
2018-04-24T02:39:21.200Z,55.00
2018-04-24T02:41:49.426Z,55.50
2018-04-24T02:44:16.925Z,55.00
2018-04-24T02:46:44.488Z,55.00
2018-04-24T02:49:11.944Z,55.00
2018-04-24T02:51:39.502Z,55.00
2018-04-24T02:54:06.956Z,55.10
2018-04-24T02:56:34.419Z,55.10
2018-04-24T02:59:01.868Z,55.10
2018-04-24T03:01:29.331Z,55.10
2018-04-24T03:03:56.784Z,55.10
2018-04-24T03:06:24.240Z,55.10
2018-04-24T03:08:52.412Z,55.10
2018-04-24T03:11:19.965Z,55.10
2018-04-24T03:13:47.412Z,55.10
2018-04-24T03:16:14.872Z,55.10
2018-04-24T03:18:42.424Z,55.10
2018-04-24T03:21:09.989Z,55.00
2018-04-24T03:23:37.439Z,55.00
2018-04-24T03:26:04.995Z,55.00
2018-04-24T03:28:32.446Z,55.00
2018-04-24T03:30:59.898Z,55.00
2018-04-24T03:33:27.355Z,55.00
2018-04-24T03:35:54.800Z,55.00
2018-04-24T03:38:22.277Z,55.00
2018-04-24T03:40:49.725Z,55.00
2018-04-24T03:43:17.186Z,55.00
2018-04-24T03:45:44.636Z,55.00
2018-04-24T03:48:12.192Z,55.00
2018-04-24T03:50:39.644Z,55.00
2018-04-24T03:53:07.107Z,55.00
2018-04-24T03:55:34.561Z,54.90
2018-04-24T03:58:02.015Z,55.00
2018-04-24T04:00:29.460Z,55.00
2018-04-24T04:02:57.025Z,55.00
2018-04-24T04:05:24.497Z,55.00
2018-04-24T04:07:51.951Z,55.10
2018-04-24T04:10:19.412Z,55.10
2018-04-24T04:12:48.379Z,55.00
2018-04-24T04:15:15.836Z,55.00
2018-04-24T04:17:55.285Z,55.10
2018-04-24T04:20:34.680Z,55.00
2018-04-24T04:23:14.023Z,55.00
2018-04-24T04:25:41.476Z,55.00
2018-04-24T04:28:08.940Z,55.00
2018-04-24T04:30:37.206Z,54.90
2018-04-24T04:33:04.692Z,54.50
2018-04-24T04:35:32.140Z,52.70
2018-04-24T04:37:59.696Z,51.70
2018-04-24T04:40:27.145Z,50.30
2018-04-24T04:42:54.602Z,49.40
2018-04-24T04:45:22.068Z,49.90
2018-04-24T04:47:49.611Z,49.40
2018-04-24T04:50:17.088Z,49.30
2018-04-24T04:52:44.648Z,49.30
2018-04-24T04:55:12.102Z,49.20
2018-04-24T04:57:39.552Z,49.20
2018-04-24T05:00:07.017Z,49.00
2018-04-24T05:02:34.570Z,48.70
2018-04-24T05:05:02.036Z,48.60
2018-04-24T05:07:29.488Z,48.70
2018-04-24T05:09:56.960Z,48.80
2018-04-24T05:12:25.175Z,49.60
2018-04-24T05:14:52.648Z,49.50
2018-04-24T05:17:20.128Z,49.90
2018-04-24T05:19:47.600Z,50.50
2018-04-24T05:22:15.044Z,50.50
2018-04-24T05:24:42.507Z,50.50
2018-04-24T05:27:09.960Z,50.70
2018-04-24T05:29:37.418Z,50.80
2018-04-24T05:32:04.875Z,50.90
2018-04-24T05:34:32.334Z,51.20
2018-04-24T05:36:59.794Z,51.20
2018-04-24T05:39:28.021Z,51.10
2018-04-24T05:41:55.516Z,51.10
2018-04-24T05:44:22.975Z,50.80
2018-04-24T05:46:51.230Z,51.30
2018-04-24T05:49:18.688Z,51.90
2018-04-24T05:51:46.148Z,51.50
2018-04-24T05:54:13.604Z,51.70
2018-04-24T05:56:41.057Z,51.70
2018-04-24T05:59:08.524Z,51.80
2018-04-24T06:01:36.783Z,52.00
2018-04-24T06:04:04.344Z,52.60
2018-04-24T06:06:31.891Z,52.10
2018-04-24T06:08:59.361Z,52.10
2018-04-24T06:11:26.820Z,52.20
2018-04-24T06:13:54.286Z,52.40
2018-04-24T06:16:22.525Z,52.40
2018-04-24T06:18:49.980Z,52.30
2018-04-24T06:21:17.451Z,52.50
2018-04-24T06:23:44.907Z,52.50
2018-04-24T06:26:12.396Z,52.50
2018-04-24T06:28:40.785Z,52.70
2018-04-24T06:31:08.143Z,52.60
2018-04-24T06:33:35.533Z,52.60
2018-04-24T06:36:03.102Z,52.70
2018-04-24T06:38:30.451Z,52.70
2018-04-24T06:40:57.920Z,52.70
2018-04-24T06:43:25.369Z,52.70
2018-04-24T06:45:52.923Z,52.70
2018-04-24T06:48:20.385Z,52.80
2018-04-24T06:50:47.949Z,52.90
2018-04-24T06:53:15.403Z,52.90
2018-04-24T06:55:43.636Z,52.90
2018-04-24T06:58:11.096Z,52.90
2018-04-24T07:00:38.639Z,53.50
2018-04-24T07:03:06.025Z,52.90
2018-04-24T07:05:33.492Z,53.00
2018-04-24T07:08:00.969Z,53.00
2018-04-24T07:10:29.184Z,53.00
2018-04-24T07:12:56.648Z,52.90
2018-04-24T07:15:24.095Z,53.00
2018-04-24T07:17:51.564Z,53.00
2018-04-24T07:20:19.016Z,53.00
2018-04-24T07:22:46.480Z,53.00
2018-04-24T07:25:13.964Z,53.00
2018-04-24T07:27:41.415Z,53.00
2018-04-24T07:30:08.872Z,53.10
2018-04-24T07:32:36.328Z,53.00
2018-04-24T07:35:03.785Z,53.00
2018-04-24T07:37:31.249Z,53.00
2018-04-24T07:39:59.468Z,53.00
2018-04-24T07:42:26.965Z,53.00
2018-04-24T07:44:54.521Z,53.00
2018-04-24T07:47:21.984Z,53.00
2018-04-24T07:49:50.200Z,53.00
2018-04-24T07:52:17.661Z,53.00
2018-04-24T07:54:45.112Z,53.10
2018-04-24T07:57:12.612Z,53.10
2018-04-24T07:59:40.172Z,53.00
2018-04-24T08:02:07.732Z,53.10
2018-04-24T08:04:35.179Z,53.10
2018-04-24T08:07:02.644Z,53.20
2018-04-24T08:09:30.108Z,53.10
2018-04-24T08:11:57.570Z,53.10
2018-04-24T08:14:25.039Z,53.10
2018-04-24T08:16:53.266Z,53.10
2018-04-24T08:19:20.757Z,53.00
2018-04-24T08:21:48.217Z,53.10
2018-04-24T08:24:16.448Z,53.20
2018-04-24T08:26:43.910Z,53.10
2018-04-24T08:29:11.374Z,53.00
2018-04-24T08:31:38.824Z,53.00
2018-04-24T08:34:06.285Z,53.00
2018-04-24T08:36:33.736Z,53.00
2018-04-24T08:39:01.270Z,53.10
2018-04-24T08:41:28.655Z,53.10
2018-04-24T08:43:56.120Z,53.00
2018-04-24T08:46:23.564Z,53.10
2018-04-24T08:48:51.029Z,53.00
2018-04-24T08:51:18.482Z,53.10
2018-04-24T08:53:45.939Z,53.10
2018-04-24T08:56:13.496Z,53.10
2018-04-24T08:58:40.960Z,53.10
2018-04-24T09:01:08.511Z,53.10
2018-04-24T09:03:36.072Z,53.10
2018-04-24T09:06:03.529Z,53.10
2018-04-24T09:08:31.111Z,53.10
2018-04-24T09:10:58.704Z,53.20
2018-04-24T09:13:26.204Z,53.10
2018-04-24T09:15:53.661Z,53.10
2018-04-24T09:18:21.896Z,53.10
2018-04-24T09:20:49.352Z,53.10
2018-04-24T09:23:16.836Z,53.10
2018-04-24T09:25:44.288Z,53.10
2018-04-24T09:28:11.748Z,53.10
2018-04-24T09:30:39.216Z,53.10
2018-04-24T09:33:06.672Z,53.10
2018-04-24T09:35:34.128Z,53.00
2018-04-24T09:38:01.580Z,53.00
2018-04-24T09:40:29.140Z,53.00
2018-04-24T09:42:56.615Z,53.00
2018-04-24T09:45:24.871Z,53.00
2018-04-24T09:47:53.836Z,53.10
2018-04-24T09:50:21.294Z,53.00
2018-04-24T09:52:48.781Z,53.00
2018-04-24T09:55:16.244Z,53.00
2018-04-24T09:57:44.464Z,53.50
2018-04-24T10:00:11.933Z,53.00
2018-04-24T10:02:39.397Z,53.10
2018-04-24T10:05:06.856Z,53.00
2018-04-24T10:07:34.327Z,53.10
2018-04-24T10:10:01.797Z,53.10
2018-04-24T10:12:29.241Z,53.00
2018-04-24T10:14:56.987Z,53.00
2018-04-24T10:17:24.457Z,53.10
2018-04-24T10:19:52.002Z,53.10
2018-04-24T10:22:19.476Z,53.10
2018-04-24T10:24:46.945Z,53.10
2018-04-24T10:27:15.220Z,53.10
2018-04-24T10:29:42.628Z,53.10
2018-04-24T10:32:10.077Z,53.10
2018-04-24T10:34:37.537Z,53.20
2018-04-24T10:37:04.997Z,53.10
2018-04-24T10:39:32.469Z,53.20
2018-04-24T10:41:59.923Z,53.10
2018-04-24T10:44:27.380Z,53.20
2018-04-24T10:46:54.849Z,53.10
2018-04-24T10:49:22.323Z,53.10
2018-04-24T10:51:50.636Z,53.10
2018-04-24T10:54:18.023Z,53.00
2018-04-24T10:56:45.484Z,53.10
2018-04-24T10:59:13.034Z,53.10
2018-04-24T11:01:40.395Z,53.00
2018-04-24T11:04:08.637Z,53.00
2018-04-24T11:06:36.175Z,53.00
2018-04-24T11:09:03.585Z,53.00
2018-04-24T11:11:31.040Z,53.00
2018-04-24T11:13:58.588Z,53.00
2018-04-24T11:16:26.044Z,53.00
2018-04-24T11:18:53.496Z,53.00
2018-04-24T11:21:20.966Z,53.00
2018-04-24T11:23:48.420Z,53.00
2018-04-24T11:26:15.892Z,53.10
2018-04-24T11:28:43.340Z,53.00
2018-04-24T11:31:10.802Z,53.00
2018-04-24T11:33:38.267Z,53.70
2018-04-24T11:36:06.504Z,53.10
2018-04-24T11:38:33.945Z,53.00
2018-04-24T11:41:01.409Z,53.00
2018-04-24T11:43:28.859Z,53.00
2018-04-24T11:45:56.324Z,53.00
2018-04-24T11:48:23.784Z,53.10
2018-04-24T11:50:51.250Z,53.00
2018-04-24T11:53:18.708Z,53.00
2018-04-24T11:55:46.169Z,53.00
2018-04-24T11:58:13.633Z,53.10
2018-04-24T12:00:41.087Z,53.00
2018-04-24T12:03:09.305Z,53.10
2018-04-24T12:05:36.769Z,53.00
2018-04-24T12:08:04.232Z,53.10
2018-04-24T12:10:31.689Z,53.00
2018-04-24T12:12:59.172Z,53.10
2018-04-24T12:15:26.637Z,53.10
2018-04-24T12:17:54.167Z,53.10
2018-04-24T12:20:21.624Z,53.10
2018-04-24T12:22:49.076Z,53.00
2018-04-24T12:25:16.640Z,52.90
2018-04-24T12:27:44.092Z,53.00
2018-04-24T12:30:11.649Z,52.80
2018-04-24T12:32:39.095Z,52.80
2018-04-24T12:35:06.555Z,53.30
2018-04-24T12:37:34.009Z,53.10
2018-04-24T12:40:01.482Z,54.50
2018-04-24T12:42:28.952Z,53.50
2018-04-24T12:44:56.504Z,53.90
2018-04-24T12:47:23.952Z,53.80
2018-04-24T12:49:51.409Z,53.50
2018-04-24T12:52:18.880Z,54.80
2018-04-24T12:54:46.332Z,53.80
2018-04-24T12:57:13.784Z,53.60
2018-04-24T12:59:41.292Z,53.90
2018-04-24T13:02:08.752Z,54.20
2018-04-24T13:04:37.018Z,53.30
2018-04-24T13:07:05.235Z,53.70
2018-04-24T13:09:32.704Z,53.70
2018-04-24T13:12:00.162Z,53.50
2018-04-24T13:14:28.394Z,53.50
2018-04-24T13:16:55.859Z,53.40
2018-04-24T13:19:23.308Z,53.50
2018-04-24T13:21:50.770Z,53.50
2018-04-24T13:24:18.223Z,53.50
2018-04-24T13:26:45.696Z,53.50
2018-04-24T13:29:13.158Z,53.60
2018-04-24T13:31:41.341Z,54.40
2018-04-24T13:34:08.800Z,55.20
2018-04-24T13:36:36.255Z,55.00
2018-04-24T13:39:04.473Z,55.10
2018-04-24T13:41:31.968Z,55.10
2018-04-24T13:43:59.428Z,55.00
2018-04-24T13:46:26.964Z,55.10
2018-04-24T13:48:54.438Z,55.10
2018-04-24T13:51:21.880Z,55.30
2018-04-24T13:53:49.340Z,55.30
2018-04-24T13:56:16.811Z,55.40
2018-04-24T13:58:44.317Z,55.30
2018-04-24T14:01:11.793Z,55.60
2018-04-24T14:03:39.246Z,55.80
2018-04-24T14:06:06.798Z,55.80
2018-04-24T14:08:35.684Z,55.70
2018-04-24T14:11:03.144Z,55.70
2018-04-24T14:13:30.623Z,55.70
2018-04-24T14:15:58.095Z,55.80
2018-04-24T14:18:25.552Z,55.80
2018-04-24T14:20:53.833Z,56.20
2018-04-24T14:23:22.104Z,55.50
2018-04-24T14:25:49.564Z,55.90
2018-04-24T14:28:17.792Z,56.00
2018-04-24T14:30:45.248Z,55.90
2018-04-24T14:33:12.718Z,56.00
2018-04-24T14:35:40.193Z,56.10
2018-04-24T14:38:07.655Z,56.10
2018-04-24T14:40:35.201Z,56.00
2018-04-24T14:43:02.669Z,56.00
2018-04-24T14:45:30.116Z,56.10
2018-04-24T14:47:59.120Z,56.10
2018-04-24T14:50:26.657Z,56.10
2018-04-24T14:52:54.119Z,56.30
2018-04-24T14:55:21.587Z,56.40
2018-04-24T14:57:49.808Z,56.70
2018-04-24T15:00:17.263Z,56.70
2018-04-24T15:02:44.718Z,56.70
2018-04-24T15:05:12.246Z,56.50
2018-04-24T15:07:39.753Z,56.60
2018-04-24T15:10:07.212Z,56.50
2018-04-24T15:12:34.673Z,56.60
2018-04-24T15:15:02.131Z,56.80
2018-04-24T15:17:29.597Z,56.70
2018-04-24T15:19:57.041Z,56.70
2018-04-24T15:22:25.276Z,56.50
2018-04-24T15:24:52.739Z,56.60
2018-04-24T15:27:20.214Z,56.70
2018-04-24T15:29:47.665Z,56.20
2018-04-24T15:32:15.235Z,55.20
2018-04-24T15:34:42.695Z,55.20
2018-04-24T15:37:10.206Z,55.50
2018-04-24T15:39:37.668Z,55.70
2018-04-24T15:42:05.129Z,56.00
2018-04-24T15:44:32.584Z,56.20
2018-04-24T15:47:00.048Z,56.10
2018-04-24T15:49:27.541Z,56.40
2018-04-24T15:51:54.980Z,56.20
2018-04-24T15:54:22.427Z,56.40
2018-04-24T15:56:49.909Z,56.50
2018-04-24T15:59:17.361Z,56.50
2018-04-24T16:01:44.815Z,56.40
2018-04-24T16:04:13.045Z,57.10
2018-04-24T16:06:40.521Z,56.40
2018-04-24T16:09:07.976Z,56.40
2018-04-24T16:11:35.429Z,56.40
2018-04-24T16:14:02.896Z,56.30
2018-04-24T16:16:30.352Z,56.20
2018-04-24T16:18:57.814Z,56.20
2018-04-24T16:21:26.010Z,56.20
2018-04-24T16:23:54.237Z,56.10
2018-04-24T16:26:21.691Z,56.10
2018-04-24T16:28:49.163Z,56.10
2018-04-24T16:31:16.624Z,56.10
2018-04-24T16:33:44.092Z,56.00
2018-04-24T16:36:11.640Z,56.10
2018-04-24T16:38:39.204Z,55.40
2018-04-24T16:41:06.762Z,55.90
2018-04-24T16:43:34.221Z,55.90
2018-04-24T16:46:01.690Z,56.00
2018-04-24T16:48:29.907Z,56.00
2018-04-24T16:50:57.456Z,56.00
2018-04-24T16:53:25.764Z,56.00
2018-04-24T16:55:53.218Z,55.90
2018-04-24T16:58:20.705Z,55.90
2018-04-24T17:00:49.016Z,56.00
2018-04-24T17:03:17.208Z,56.10
2018-04-24T17:05:44.663Z,56.00
2018-04-24T17:08:12.120Z,55.90
2018-04-24T17:10:39.597Z,56.00
2018-04-24T17:13:07.053Z,56.00
2018-04-24T17:15:34.524Z,56.00
2018-04-24T17:18:02.756Z,56.00
2018-04-24T17:20:30.207Z,56.00
2018-04-24T17:22:57.673Z,55.90
2018-04-24T17:25:25.133Z,56.00
2018-04-24T17:27:52.610Z,56.00
2018-04-24T17:30:20.058Z,55.50
2018-04-24T17:32:47.519Z,55.60
2018-04-24T17:35:14.968Z,55.60
2018-04-24T17:37:42.429Z,55.70
2018-04-24T17:40:11.083Z,55.70
2018-04-24T17:42:38.540Z,55.70
2018-04-24T17:45:05.991Z,55.70
2018-04-24T17:47:33.456Z,55.70
2018-04-24T17:50:00.994Z,55.80
2018-04-24T17:52:28.379Z,55.90
2018-04-24T17:54:55.840Z,56.60
2018-04-24T17:57:23.300Z,56.80
2018-04-24T17:59:50.760Z,56.40
2018-04-24T18:02:18.211Z,56.30
2018-04-24T18:04:45.680Z,56.50
2018-04-24T18:07:13.128Z,56.20
2018-04-24T18:09:40.591Z,56.20
2018-04-24T18:12:08.043Z,56.30
2018-04-24T18:14:35.514Z,56.50
2018-04-24T18:17:03.728Z,56.40
2018-04-24T18:19:31.195Z,56.30
2018-04-24T18:21:58.668Z,56.30
2018-04-24T18:24:26.130Z,56.30
2018-04-24T18:26:53.684Z,56.40
2018-04-24T18:29:21.150Z,56.40
2018-04-24T18:31:48.604Z,56.40
2018-04-24T18:34:16.071Z,56.40
2018-04-24T18:36:44.331Z,57.10
2018-04-24T18:39:11.796Z,56.90
2018-04-24T18:41:39.257Z,58.20
2018-04-24T18:44:06.712Z,58.80
2018-04-24T18:46:34.928Z,56.80
2018-04-24T18:49:02.387Z,56.80
2018-04-24T18:51:29.848Z,56.70
2018-04-24T18:53:57.309Z,56.70
2018-04-24T18:56:24.760Z,56.70
2018-04-24T18:58:52.225Z,56.50
2018-04-24T19:01:19.681Z,56.50
2018-04-24T19:03:47.144Z,56.50
2018-04-24T19:06:14.592Z,56.50
2018-04-24T19:08:42.060Z,56.50
2018-04-24T19:11:09.512Z,56.50
2018-04-24T19:13:36.971Z,56.50
2018-04-24T19:16:04.428Z,56.50
2018-04-24T19:18:37.604Z,56.50
2018-04-24T19:21:05.063Z,56.50
2018-04-24T19:23:32.524Z,56.40
2018-04-24T19:25:59.988Z,56.40
2018-04-24T19:28:28.224Z,56.40
2018-04-24T19:30:55.684Z,56.40
2018-04-24T19:33:23.142Z,56.40
2018-04-24T19:35:50.629Z,56.40
2018-04-24T19:38:18.347Z,56.40
2018-04-24T19:40:51.656Z,56.40
2018-04-24T19:43:19.112Z,56.40
2018-04-24T19:45:46.573Z,56.30
2018-04-24T19:51:13.167Z,56.30
2018-04-24T19:53:40.640Z,56.40
2018-04-24T19:56:08.210Z,56.40
2018-04-24T19:58:35.692Z,57.00
2018-04-24T20:01:03.264Z,56.30
2018-04-24T20:03:30.776Z,56.40
2018-04-24T20:05:59.121Z,56.40
2018-04-24T20:08:26.655Z,56.30
2018-04-24T20:10:54.368Z,56.30
2018-04-24T20:13:21.937Z,56.30
2018-04-24T20:15:49.575Z,56.30
2018-04-24T20:18:17.163Z,56.30
2018-04-24T20:20:44.677Z,56.40
2018-04-24T20:23:12.191Z,56.30
2018-04-24T20:25:39.793Z,56.40
2018-04-24T20:28:07.370Z,56.30
2018-04-24T20:30:34.919Z,56.20
2018-04-24T20:33:02.615Z,56.20
2018-04-24T20:35:30.436Z,56.30
2018-04-24T20:37:57.927Z,56.30
2018-04-24T20:40:25.533Z,56.40
2018-04-24T20:42:53.108Z,56.40
2018-04-24T20:45:20.708Z,56.40
2018-04-24T20:47:48.889Z,56.40
2018-04-24T20:50:16.495Z,56.30
2018-04-24T20:52:44.564Z,56.30
2018-04-24T20:55:12.435Z,56.30
2018-04-24T20:57:40.311Z,56.40
2018-04-24T21:00:07.865Z,56.40
2018-04-24T21:02:35.389Z,56.40
2018-04-24T21:05:03.113Z,56.40
2018-04-24T21:07:30.724Z,56.40
2018-04-24T21:09:58.574Z,56.40
2018-04-24T21:12:26.918Z,56.50
2018-04-24T21:14:54.509Z,56.30
2018-04-24T21:17:22.267Z,56.30
2018-04-24T21:19:49.869Z,56.40
2018-04-24T21:22:17.499Z,56.30
2018-04-24T21:24:45.242Z,56.30
2018-04-24T21:27:13.683Z,56.30
2018-04-24T21:29:41.349Z,56.20
2018-04-24T21:32:08.988Z,56.20
2018-04-24T21:34:36.610Z,56.20
2018-04-24T21:37:04.211Z,56.20
2018-04-24T21:39:31.960Z,56.20
2018-04-24T21:41:59.627Z,56.20
2018-04-24T21:44:27.189Z,56.10
2018-04-24T21:46:54.747Z,56.20
2018-04-24T21:49:22.191Z,56.10
2018-04-24T21:51:49.873Z,56.10
2018-04-24T21:54:17.340Z,56.10
2018-04-24T21:56:44.805Z,56.10
2018-04-24T21:59:12.551Z,56.00
2018-04-24T22:01:40.304Z,56.00
2018-04-24T22:04:07.667Z,56.10
2018-04-24T22:06:35.133Z,56.10
2018-04-24T22:09:02.593Z,56.00
2018-04-24T22:11:30.049Z,56.00
2018-04-24T22:13:57.500Z,56.10
2018-04-24T22:16:24.974Z,56.00
2018-04-24T22:18:52.516Z,56.70
2018-04-24T22:21:20.156Z,56.00
2018-04-24T22:23:47.638Z,56.00
2018-04-24T22:26:15.099Z,56.00
2018-04-24T22:28:42.559Z,55.90
2018-04-24T22:31:10.112Z,55.90
2018-04-24T22:33:37.749Z,56.00
2018-04-24T22:36:05.282Z,56.00
2018-04-24T22:38:32.729Z,55.90
2018-04-24T22:41:00.184Z,55.90
2018-04-24T22:43:27.628Z,55.90
2018-04-24T22:45:55.173Z,55.90
2018-04-24T22:48:22.800Z,55.80
2018-04-24T22:50:50.387Z,55.80
2018-04-24T22:53:18.020Z,55.80
2018-04-24T22:55:45.481Z,55.70
2018-04-24T22:58:13.063Z,55.80
2018-04-24T23:00:41.215Z,55.80
2018-04-24T23:03:08.811Z,55.70
2018-04-24T23:05:36.369Z,55.70
2018-04-24T23:08:03.858Z,55.70
2018-04-24T23:10:42.991Z,55.70
2018-04-24T23:13:22.203Z,55.70
2018-04-24T23:16:01.533Z,55.70
2018-04-24T23:18:40.728Z,55.70
2018-04-24T23:21:07.687Z,55.70
2018-04-24T23:23:35.272Z,55.70
2018-04-24T23:26:02.904Z,55.70
2018-04-24T23:28:30.496Z,55.70
2018-04-24T23:30:57.946Z,55.70
2018-04-24T23:33:25.584Z,55.70
2018-04-24T23:35:53.169Z,55.70
2018-04-24T23:38:20.803Z,55.70
2018-04-24T23:40:48.308Z,55.70
2018-04-24T23:43:15.850Z,55.70
2018-04-24T23:45:43.304Z,55.60
2018-04-24T23:48:11.080Z,55.60
2018-04-24T23:50:38.532Z,55.60
2018-04-24T23:53:06.183Z,55.60
2018-04-24T23:55:33.638Z,55.60
2018-04-24T23:58:01.196Z,55.70
